Time;durP1;ratioP1;P1;durP2;ratioP2;P2;SDS_P1;SDS_P2;PMS_P1;PMS_P2;Temp;Humidity;BMP_temperature;BMP_pressure;BME280_temperature;BME280_humidity;BME280_pressure;Samples;Min_cycle;Max_cycle;Signal;HPM_P1;HPM_P2
2022/06/05 00:01:24;;;;;;;;;;;19.60;99.90;;;;;;5031369;28;20024;-80
2022/06/05 00:03:53;;;;;;;;;;;19.60;99.90;;;;;;5015264;28;19928;-83
2022/06/05 00:06:32;;;;;;;;;;;19.60;99.90;;;;;;5033380;28;19913;-83
2022/06/05 00:08:58;;;;;;;;;;;19.60;99.90;;;;;;5032190;28;19937;-81
2022/06/05 00:11:23;;;;;;;;;;;19.50;99.90;;;;;;5034292;28;19928;-83
2022/06/05 00:13:52;;;;;;;;;;;19.50;99.90;;;;;;5034298;28;19916;-81
2022/06/05 00:16:19;;;;;;;;;;;19.50;1.00;;;;;;5034535;28;19909;-83
2022/06/05 00:18:45;;;;;;;;;;;19.40;1.00;;;;;;5017427;28;19916;-82
2022/06/05 00:21:10;;;;;;;;;;;19.30;1.00;;;;;;5036432;28;19909;-82
2022/06/05 00:23:36;;;;;;;;;;;19.30;1.00;;;;;;5014038;28;19932;-84
2022/06/05 00:28:52;;;;;;;;;;;19.30;1.00;;;;;;5079500;22;20404;-80
2022/06/05 00:31:40;;;;;;;;;;;19.20;1.00;;;;;;5053832;28;20396;-80
2022/06/05 00:34:06;;;;;;;;;;;19.20;1.00;;;;;;5040102;28;19920;-80
2022/06/05 00:36:31;;;;;;;;;;;19.20;1.00;;;;;;5051305;28;19910;-80
2022/06/05 00:39:13;;;;;;;;;;;19.20;1.00;;;;;;5036382;28;19921;-80
2022/06/05 00:41:41;;;;;;;;;;;19.20;1.00;;;;;;5014394;28;19921;-79
2022/06/05 00:44:10;;;;;;;;;;;19.20;1.00;;;;;;5037143;28;19917;-80
2022/06/05 00:46:37;;;;;;;;;;;19.10;5.80;;;;;;5024280;28;19921;-80
2022/06/05 00:49:03;;;;;;;;;;;19.10;42.20;;;;;;5035781;28;20007;-80
2022/06/05 00:51:28;;;;;;;;;;;19.10;99.90;;;;;;5026050;28;20023;-80
2022/06/05 00:53:54;;;;;;;;;;;19.10;99.90;;;;;;5015219;28;19949;-80
2022/06/05 00:56:19;;;;;;;;;;;19.00;99.90;;;;;;5023029;28;19920;-80
2022/06/05 00:58:45;;;;;;;;;;;19.00;99.90;;;;;;5019605;28;20378;-80
2022/06/05 01:01:11;;;;;;;;;;;18.90;99.90;;;;;;5022027;28;20400;-80
2022/06/05 01:03:36;;;;;;;;;;;18.90;99.90;;;;;;5021022;28;19917;-80
2022/06/05 01:06:02;;;;;;;;;;;18.90;1.00;;;;;;5021254;28;19921;-81
2022/06/05 01:08:28;;;;;;;;;;;18.90;1.00;;;;;;5033672;28;19924;-80
2022/06/05 01:11:05;;;;;;;;;;;18.90;1.00;;;;;;5023387;28;19979;-80
2022/06/05 01:13:44;;;;;;;;;;;18.90;1.00;;;;;;5012365;28;19913;-80
2022/06/05 01:16:22;;;;;;;;;;;18.90;1.00;;;;;;5016816;28;20005;-80
2022/06/05 01:18:59;;;;;;;;;;;18.80;1.00;;;;;;5033986;28;20322;-80
2022/06/05 01:21:30;;;;;;;;;;;18.80;99.90;;;;;;5030342;28;19920;-79
2022/06/05 01:24:19;;;;;;;;;;;18.80;99.90;;;;;;5034940;28;19936;-80
2022/06/05 01:26:45;;;;;;;;;;;18.80;99.90;;;;;;5013466;28;19956;-80
2022/06/05 01:29:18;;;;;;;;;;;18.70;1.00;;;;;;5036310;28;19921;-80
2022/06/05 01:31:45;;;;;;;;;;;18.80;1.00;;;;;;5020514;28;19921;-80
2022/06/05 01:34:21;;;;;;;;;;;18.70;36.80;;;;;;5018324;28;19913;-80
2022/06/05 01:36:49;;;;;;;;;;;18.70;99.90;;;;;;5035939;28;20024;-80
2022/06/05 01:39:19;;;;;;;;;;;18.70;99.90;;;;;;5018298;28;20427;-80
2022/06/05 01:41:47;;;;;;;;;;;18.70;99.90;;;;;;5025135;28;19921;-80
2022/06/05 01:44:15;;;;;;;;;;;18.60;1.00;;;;;;5019959;28;19948;-80
2022/06/05 01:46:40;;;;;;;;;;;18.60;1.00;;;;;;5024543;28;20759;-80
2022/06/05 01:49:18;;;;;;;;;;;18.60;1.00;;;;;;5021139;28;19917;-79
2022/06/05 01:51:56;;;;;;;;;;;18.60;1.00;;;;;;5036916;28;19918;-80
2022/06/05 01:54:26;;;;;;;;;;;18.60;99.90;;;;;;5017874;28;19913;-80
2022/06/05 01:56:53;;;;;;;;;;;18.50;99.90;;;;;;5030789;28;19913;-80
2022/06/05 01:59:22;;;;;;;;;;;18.50;1.00;;;;;;5018415;28;19919;-80
2022/06/05 02:01:51;;;;;;;;;;;18.50;1.00;;;;;;5036658;28;20357;-80
2022/06/05 02:04:20;;;;;;;;;;;18.50;1.00;;;;;;5033360;28;19921;-80
2022/06/05 02:06:48;;;;;;;;;;;18.50;1.00;;;;;;5017058;28;20031;-80
2022/06/05 02:09:17;;;;;;;;;;;18.50;1.00;;;;;;5033411;28;19959;-80
2022/06/05 02:11:43;;;;;;;;;;;18.60;1.00;;;;;;5016244;28;20586;-80
2022/06/05 02:14:09;;;;;;;;;;;18.50;99.90;;;;;;5020271;28;19920;-80
2022/06/05 02:16:36;;;;;;;;;;;18.60;99.90;;;;;;5017588;28;19917;-80
2022/06/05 02:19:03;;;;;;;;;;;18.60;99.90;;;;;;5020473;28;20377;-80
2022/06/05 02:21:29;;;;;;;;;;;18.60;99.90;;;;;;5015095;28;20045;-80
2022/06/05 02:23:56;;;;;;;;;;;18.60;99.90;;;;;;5013814;28;19982;-80
2022/06/05 02:26:21;;;;;;;;;;;18.60;99.90;;;;;;5018036;28;20274;-80
2022/06/05 02:28:47;;;;;;;;;;;18.60;99.90;;;;;;5032266;28;20043;-80
2022/06/05 02:31:21;;;;;;;;;;;18.60;99.90;;;;;;5017287;28;20002;-80
2022/06/05 02:33:56;;;;;;;;;;;18.60;99.90;;;;;;5034856;28;20370;-80
2022/06/05 02:36:30;;;;;;;;;;;18.60;99.90;;;;;;5026777;28;19913;-80
2022/06/05 02:39:03;;;;;;;;;;;18.70;99.90;;;;;;5032468;28;19913;-79
2022/06/05 02:41:28;;;;;;;;;;;18.70;99.90;;;;;;5012636;28;19913;-80
2022/06/05 02:46:49;;;;;;;;;;;18.70;99.90;;;;;;5027805;28;19936;-80
2022/06/05 02:49:20;;;;;;;;;;;18.70;99.90;;;;;;5032914;28;19913;-80
2022/06/05 02:51:46;;;;;;;;;;;18.70;99.90;;;;;;5021856;28;19913;-80
2022/06/05 02:54:24;;;;;;;;;;;18.60;99.90;;;;;;5032754;28;19980;-80
2022/06/05 02:56:50;;;;;;;;;;;18.60;1.00;;;;;;5029124;28;19944;-80
2022/06/05 02:59:17;;;;;;;;;;;18.60;1.00;;;;;;5015864;28;20388;-80
2022/06/05 03:04:27;;;;;;;;;;;18.50;1.00;;;;;;5034849;28;20388;-80
2022/06/05 03:06:52;;;;;;;;;;;18.50;1.00;;;;;;5024916;28;20003;-80
2022/06/05 03:09:18;;;;;;;;;;;18.50;1.00;;;;;;5019032;28;19932;-80
2022/06/05 03:11:44;;;;;;;;;;;18.50;1.00;;;;;;5008136;28;20320;-80
2022/06/05 03:14:10;;;;;;;;;;;18.50;1.00;;;;;;5033867;28;19988;-80
2022/06/05 03:16:35;;;;;;;;;;;18.50;1.00;;;;;;5015325;28;19919;-80
2022/06/05 03:19:01;;;;;;;;;;;18.50;1.00;;;;;;5014253;28;19928;-80
2022/06/05 03:21:30;;;;;;;;;;;18.50;99.90;;;;;;5009212;28;19917;-81
2022/06/05 03:23:55;;;;;;;;;;;18.50;99.90;;;;;;5029825;28;19920;-80
2022/06/05 03:26:22;;;;;;;;;;;18.60;99.90;;;;;;5012990;28;19914;-80
2022/06/05 03:28:48;;;;;;;;;;;18.60;99.90;;;;;;5012392;28;19944;-80
2022/06/05 03:31:13;;;;;;;;;;;18.60;99.90;;;;;;5019943;28;19914;-80
2022/06/05 03:33:39;;;;;;;;;;;18.60;99.90;;;;;;5012491;28;19921;-80
2022/06/05 03:36:09;;;;;;;;;;;18.60;99.90;;;;;;5007861;28;19913;-80
2022/06/05 03:38:35;;;;;;;;;;;18.60;99.90;;;;;;5012961;28;19917;-80
2022/06/05 03:41:01;;;;;;;;;;;18.60;99.90;;;;;;5025501;28;19936;-81
2022/06/05 03:43:26;;;;;;;;;;;18.60;99.90;;;;;;5016543;28;20011;-80
2022/06/05 03:46:06;;;;;;;;;;;18.60;99.90;;;;;;5031697;28;19917;-80
2022/06/05 03:48:31;;;;;;;;;;;18.60;99.90;;;;;;5012699;28;19924;-80
2022/06/05 03:50:58;;;;;;;;;;;18.60;99.90;;;;;;5016349;28;19913;-80
2022/06/05 03:53:23;;;;;;;;;;;18.60;97.20;;;;;;5016403;28;19920;-80
2022/06/05 03:55:49;;;;;;;;;;;18.60;28.70;;;;;;5014894;28;19917;-80
2022/06/05 03:58:14;;;;;;;;;;;18.60;1.00;;;;;;5015485;28;19913;-80
2022/06/05 04:00:41;;;;;;;;;;;18.60;1.00;;;;;;5014382;28;19920;-80
2022/06/05 04:03:07;;;;;;;;;;;18.60;1.00;;;;;;5015363;28;19917;-80
2022/06/05 04:05:32;;;;;;;;;;;18.70;1.00;;;;;;5014061;28;19920;-80
2022/06/05 04:07:58;;;;;;;;;;;18.70;1.00;;;;;;5016384;28;19924;-80
2022/06/05 04:10:23;;;;;;;;;;;18.70;1.00;;;;;;5015462;28;19913;-80
2022/06/05 04:12:49;;;;;;;;;;;18.80;1.00;;;;;;5015501;28;19921;-80
2022/06/05 04:15:15;;;;;;;;;;;18.80;99.90;;;;;;5016053;28;19920;-80
2022/06/05 04:17:40;;;;;;;;;;;18.90;99.90;;;;;;5017998;28;19917;-80
2022/06/05 04:20:06;;;;;;;;;;;18.90;99.90;;;;;;5014501;28;19967;-80
2022/06/05 04:22:36;;;;;;;;;;;18.90;99.90;;;;;;5015402;28;19913;-80
2022/06/05 04:25:03;;;;;;;;;;;19.00;1.00;;;;;;5012620;28;20392;-80
2022/06/05 04:27:28;;;;;;;;;;;19.00;1.00;;;;;;5015290;28;20374;-80
2022/06/05 04:29:54;;;;;;;;;;;19.10;1.00;;;;;;5030958;28;20007;-80
2022/06/05 04:32:19;;;;;;;;;;;19.10;1.00;;;;;;5013147;28;19933;-80
2022/06/05 04:34:45;;;;;;;;;;;19.10;1.00;;;;;;5015015;28;19913;-80
2022/06/05 04:37:11;;;;;;;;;;;19.10;1.00;;;;;;5008991;28;19943;-80
2022/06/05 04:39:36;;;;;;;;;;;19.20;99.90;;;;;;5014385;28;20000;-80
2022/06/05 04:42:02;;;;;;;;;;;19.10;99.90;;;;;;5015117;28;19921;-80
2022/06/05 04:44:27;;;;;;;;;;;19.20;99.90;;;;;;5015661;28;19922;-80
2022/06/05 04:46:54;;;;;;;;;;;19.10;99.90;;;;;;5014434;28;19921;-80
2022/06/05 04:49:19;;;;;;;;;;;19.10;1.00;;;;;;5015796;28;19961;-80
2022/06/05 04:51:45;;;;;;;;;;;19.10;1.00;;;;;;5015153;28;19913;-80
2022/06/05 04:54:13;;;;;;;;;;;19.10;1.00;;;;;;5015795;28;19913;-80
2022/06/05 04:56:38;;;;;;;;;;;19.10;1.00;;;;;;5017143;28;20365;-80
2022/06/05 04:59:04;;;;;;;;;;;19.10;1.00;;;;;;5017680;28;19968;-80
2022/06/05 05:01:31;;;;;;;;;;;19.10;1.00;;;;;;5032665;28;19921;-80
2022/06/05 05:03:57;;;;;;;;;;;19.10;1.00;;;;;;5032617;28;19913;-80
2022/06/05 05:06:24;;;;;;;;;;;19.10;1.00;;;;;;5027666;28;19941;-80
2022/06/05 05:08:49;;;;;;;;;;;19.10;1.00;;;;;;5031277;28;19913;-80
2022/06/05 05:11:15;;;;;;;;;;;19.20;1.00;;;;;;5016906;28;20498;-80
2022/06/05 05:13:41;;;;;;;;;;;19.20;1.00;;;;;;5035707;28;19910;-80
2022/06/05 05:16:06;;;;;;;;;;;19.30;1.00;;;;;;5017549;28;19921;-80
2022/06/05 05:18:32;;;;;;;;;;;19.30;1.00;;;;;;5035129;28;19932;-80
2022/06/05 05:21:08;;;;;;;;;;;19.40;1.00;;;;;;5034080;28;19929;-80
2022/06/05 05:23:34;;;;;;;;;;;19.40;1.00;;;;;;5035065;28;19915;-80
2022/06/05 05:26:10;;;;;;;;;;;19.50;99.90;;;;;;5035452;28;19926;-80
2022/06/05 05:28:35;;;;;;;;;;;19.50;99.90;;;;;;5015398;28;19971;-80
2022/06/05 05:31:01;;;;;;;;;;;19.50;99.90;;;;;;5036118;28;19909;-80
2022/06/05 05:33:27;;;;;;;;;;;19.50;99.90;;;;;;5018447;28;19920;-81
2022/06/05 05:35:53;;;;;;;;;;;19.60;99.90;;;;;;5035096;28;21646;-78
2022/06/05 05:38:18;;;;;;;;;;;19.60;99.90;;;;;;5036401;28;19909;-79
2022/06/05 05:43:28;;;;;;;;;;;19.70;99.90;;;;;;5034392;28;19916;-79
2022/06/05 05:45:53;;;;;;;;;;;19.80;99.90;;;;;;5036540;28;19913;-79
2022/06/05 05:48:21;;;;;;;;;;;19.80;99.90;;;;;;5038050;28;19920;-79
2022/06/05 05:50:47;;;;;;;;;;;19.90;99.90;;;;;;5036853;28;19959;-79
2022/06/05 05:53:12;;;;;;;;;;;19.90;99.90;;;;;;5039528;28;19909;-79
2022/06/05 05:55:38;;;;;;;;;;;20.00;99.90;;;;;;5019571;28;20380;-79
2022/06/05 05:58:03;;;;;;;;;;;20.10;99.90;;;;;;5037275;28;19909;-79
2022/06/05 06:00:29;;;;;;;;;;;20.10;1.00;;;;;;5020066;28;19944;-79
2022/06/05 06:02:54;;;;;;;;;;;20.10;1.00;;;;;;5038572;28;19909;-79
2022/06/05 06:05:19;;;;;;;;;;;20.10;1.00;;;;;;5036680;28;20365;-79
2022/06/05 06:07:45;;;;;;;;;;;20.10;1.00;;;;;;5037742;28;20007;-80
2022/06/05 06:10:11;;;;;;;;;;;20.10;1.00;;;;;;5020432;28;19917;-79
2022/06/05 06:12:37;;;;;;;;;;;20.20;1.00;;;;;;5036881;28;19932;-79
2022/06/05 06:15:03;;;;;;;;;;;20.20;1.00;;;;;;5020834;28;20277;-79
2022/06/05 06:17:28;;;;;;;;;;;20.20;1.00;;;;;;5037153;28;19964;-79
2022/06/05 06:19:54;;;;;;;;;;;20.20;1.00;;;;;;5036334;28;19921;-80
2022/06/05 06:22:20;;;;;;;;;;;20.20;1.00;;;;;;5019516;28;20377;-79
2022/06/05 06:24:46;;;;;;;;;;;20.20;1.00;;;;;;5020042;28;19924;-79
2022/06/05 06:27:11;;;;;;;;;;;20.20;1.00;;;;;;5036155;28;20292;-79
2022/06/05 06:29:37;;;;;;;;;;;20.20;1.00;;;;;;5020009;28;19920;-80
2022/06/05 06:32:03;;;;;;;;;;;20.20;1.00;;;;;;5052096;22;19956;-84
2022/06/05 06:34:28;;;;;;;;;;;20.30;1.00;;;;;;5042770;28;20061;-83
2022/06/05 06:36:54;;;;;;;;;;;20.30;1.00;;;;;;5046811;28;19916;-87
2022/06/05 06:39:19;;;;;;;;;;;20.30;1.00;;;;;;5061839;28;19913;-82
2022/06/05 06:41:45;;;;;;;;;;;20.30;1.00;;;;;;5046163;28;19951;-82
2022/06/05 06:44:11;;;;;;;;;;;20.40;1.00;;;;;;5043495;28;19948;-84
2022/06/05 06:46:36;;;;;;;;;;;20.40;1.00;;;;;;5046246;28;19912;-84
2022/06/05 06:49:02;;;;;;;;;;;20.50;1.00;;;;;;5037285;28;20360;-83
2022/06/05 06:51:28;;;;;;;;;;;20.60;1.00;;;;;;5046851;28;19912;-83
2022/06/05 06:53:53;;;;;;;;;;;20.70;1.00;;;;;;5044188;28;19968;-86
2022/06/05 06:56:21;;;;;;;;;;;20.70;1.00;;;;;;5044234;28;19913;-86
2022/06/05 06:58:47;;;;;;;;;;;20.80;1.00;;;;;;5039983;28;19984;-84
2022/06/05 07:01:13;;;;;;;;;;;20.90;99.90;;;;;;5064112;28;19913;-82
2022/06/05 07:03:39;;;;;;;;;;;21.00;99.90;;;;;;5044120;28;19919;-82
2022/06/05 07:06:06;;;;;;;;;;;20.90;99.90;;;;;;5044185;28;19985;-85
2022/06/05 07:08:32;;;;;;;;;;;21.00;99.90;;;;;;5046202;28;19921;-85
2022/06/05 07:10:58;;;;;;;;;;;21.10;99.90;;;;;;5042994;28;19948;-86
2022/06/05 07:13:24;;;;;;;;;;;21.20;99.90;;;;;;5046333;28;20423;-85
2022/06/05 07:15:49;;;;;;;;;;;21.20;99.90;;;;;;5043242;28;19913;-85
2022/06/05 07:18:15;;;;;;;;;;;21.30;99.90;;;;;;5046656;28;19919;-86
2022/06/05 07:20:42;;;;;;;;;;;21.50;99.90;;;;;;5049193;28;19917;-84
2022/06/05 07:23:08;;;;;;;;;;;21.60;99.90;;;;;;5039525;28;19919;-84
2022/06/05 07:25:34;;;;;;;;;;;21.70;99.90;;;;;;5041929;28;19917;-83
2022/06/05 07:28:00;;;;;;;;;;;21.80;74.10;;;;;;5040441;28;19924;-84
2022/06/05 07:30:26;;;;;;;;;;;22.10;35.80;;;;;;5046464;28;19913;-80
2022/06/05 07:32:51;;;;;;;;;;;22.40;1.00;;;;;;5029286;28;19963;-83
2022/06/05 07:35:17;;;;;;;;;;;22.70;1.00;;;;;;5055296;28;20055;-82
2022/06/05 07:37:43;;;;;;;;;;;22.60;1.00;;;;;;5039868;28;19929;-83
2022/06/05 07:40:09;;;;;;;;;;;22.70;1.00;;;;;;5056513;28;19916;-83
2022/06/05 07:42:39;;;;;;;;;;;22.80;1.00;;;;;;5053185;28;20367;-81
2022/06/05 07:45:05;;;;;;;;;;;22.70;1.00;;;;;;5055496;28;19909;-84
2022/06/05 07:47:31;;;;;;;;;;;22.70;1.00;;;;;;5054547;28;20403;-83
2022/06/05 07:49:56;;;;;;;;;;;22.70;1.00;;;;;;5055412;28;19909;-82
2022/06/05 07:55:06;;;;;;;;;;;22.50;1.00;;;;;;5049322;28;19970;-83
2022/06/05 07:57:32;;;;;;;;;;;22.70;1.00;;;;;;5037676;28;19913;-82
2022/06/05 07:59:57;;;;;;;;;;;22.70;1.00;;;;;;5052976;28;20031;-84
2022/06/05 08:02:24;;;;;;;;;;;22.80;1.00;;;;;;5055706;28;19909;-82
2022/06/05 08:04:51;;;;;;;;;;;22.90;1.00;;;;;;5054294;28;19909;-82
2022/06/05 08:07:18;;;;;;;;;;;22.90;1.00;;;;;;5055798;28;19913;-82
2022/06/05 08:09:44;;;;;;;;;;;22.90;1.00;;;;;;5056456;28;19908;-84
2022/06/05 08:12:11;;;;;;;;;;;22.70;1.00;;;;;;5058494;28;20001;-85
2022/06/05 08:14:37;;;;;;;;;;;22.70;1.00;;;;;;5050870;28;19909;-84
2022/06/05 08:17:04;;;;;;;;;;;22.90;1.00;;;;;;5055803;28;19908;-83
2022/06/05 08:19:29;;;;;;;;;;;23.00;1.00;;;;;;5055619;28;19916;-83
2022/06/05 08:21:55;;;;;;;;;;;23.10;1.00;;;;;;5056072;28;19909;-83
2022/06/05 08:24:21;;;;;;;;;;;22.90;1.00;;;;;;5055614;28;19908;-82
2022/06/05 08:26:46;;;;;;;;;;;22.60;1.00;;;;;;5035258;28;19908;-83
2022/06/05 08:29:12;;;;;;;;;;;22.40;1.00;;;;;;5051228;28;19916;-86
2022/06/05 08:31:38;;;;;;;;;;;22.10;1.00;;;;;;5050677;28;19991;-81
2022/06/05 08:34:04;;;;;;;;;;;21.90;1.00;;;;;;5049855;28;20365;-82
2022/06/05 08:36:30;;;;;;;;;;;21.70;58.00;;;;;;5053059;28;19919;-81
2022/06/05 08:41:58;;;;;;;;;;;21.50;1.00;;;;;;5043677;28;19917;-85
2022/06/05 08:44:24;;;;;;;;;;;21.70;1.00;;;;;;5034206;28;20578;-82
2022/06/05 08:47:01;;;;;;;;;;;21.70;32.30;;;;;;5037690;28;19964;-81
2022/06/05 08:49:45;;;;;;;;;;;21.70;1.00;;;;;;5033289;28;19909;-81
2022/06/05 08:52:14;;;;;;;;;;;21.50;12.90;;;;;;5054206;28;20007;-83
2022/06/05 08:54:45;;;;;;;;;;;21.20;1.00;;;;;;5039972;28;19909;-80
2022/06/05 08:57:16;;;;;;;;;;;21.10;1.00;;;;;;5052790;28;20530;-83
2022/06/05 08:59:48;;;;;;;;;;;21.10;1.00;;;;;;5055464;28;19913;-81
2022/06/05 09:02:22;;;;;;;;;;;21.00;1.00;;;;;;5039873;28;19909;-82
2022/06/05 09:04:51;;;;;;;;;;;20.80;99.90;;;;;;5044901;28;19916;-81
2022/06/05 09:07:20;;;;;;;;;;;20.70;99.90;;;;;;5057151;28;19958;-82
2022/06/05 09:10:01;;;;;;;;;;;20.70;99.90;;;;;;5039768;28;19919;-82
2022/06/05 09:12:35;;;;;;;;;;;20.60;99.90;;;;;;5056246;28;19921;-83
2022/06/05 09:15:04;;;;;;;;;;;20.50;99.90;;;;;;5041216;28;20001;-82
2022/06/05 09:17:30;;;;;;;;;;;20.50;99.90;;;;;;5056247;28;19948;-83
2022/06/05 09:19:57;;;;;;;;;;;20.50;1.00;;;;;;5035985;28;20490;-85
2022/06/05 09:22:33;;;;;;;;;;;20.50;1.00;;;;;;5056410;28;19948;-81
2022/06/05 09:25:03;;;;;;;;;;;20.50;99.90;;;;;;5055744;28;19908;-82
2022/06/05 09:27:37;;;;;;;;;;;20.50;99.90;;;;;;5037046;28;19913;-82
2022/06/05 09:30:07;;;;;;;;;;;20.50;99.90;;;;;;5050494;28;19909;-80
2022/06/05 09:32:45;;;;;;;;;;;20.50;99.90;;;;;;5053840;28;19917;-81
2022/06/05 09:35:29;;;;;;;;;;;20.40;99.90;;;;;;5051594;28;20261;-80
2022/06/05 09:37:59;;;;;;;;;;;20.40;99.90;;;;;;5056230;28;19928;-83
2022/06/05 09:40:34;;;;;;;;;;;20.40;1.00;;;;;;5033386;28;19915;-81
2022/06/05 09:43:19;;;;;;;;;;;20.40;99.90;;;;;;5054944;28;19915;-80
2022/06/05 09:45:45;;;;;;;;;;;20.30;99.90;;;;;;5051642;28;19932;-82
2022/06/05 09:48:22;;;;;;;;;;;20.30;1.00;;;;;;5036058;28;19913;-83
2022/06/05 09:50:48;;;;;;;;;;;20.10;1.00;;;;;;5051682;28;19917;-81
2022/06/05 09:53:21;;;;;;;;;;;20.00;1.00;;;;;;5052868;28;19921;-80
2022/06/05 09:56:25;;;;;;;;;;;19.90;1.00;;;;;;5054265;28;19920;-78
2022/06/05 09:58:53;;;;;;;;;;;19.90;1.00;;;;;;5017880;28;19905;-80
2022/06/05 10:01:19;;;;;;;;;;;19.90;1.00;;;;;;5016947;28;19910;-81
2022/06/05 10:03:45;;;;;;;;;;;20.00;1.00;;;;;;5035315;28;19908;-82
2022/06/05 10:06:14;;;;;;;;;;;20.00;1.00;;;;;;5039078;28;19964;-80
2022/06/05 10:08:41;;;;;;;;;;;19.90;1.00;;;;;;5041169;28;19909;-81
2022/06/05 10:11:19;;;;;;;;;;;20.00;1.00;;;;;;5055049;28;19908;-82
2022/06/05 10:13:51;;;;;;;;;;;20.00;1.00;;;;;;5065059;28;19924;-82
2022/06/05 10:16:29;;;;;;;;;;;20.10;1.00;;;;;;5050912;28;19921;-83
2022/06/05 10:19:02;;;;;;;;;;;20.10;1.00;;;;;;5051918;28;19917;-82
2022/06/05 10:21:34;;;;;;;;;;;20.10;1.00;;;;;;5049383;28;19909;-83
2022/06/05 10:24:02;;;;;;;;;;;20.00;1.00;;;;;;5050644;28;19908;-81
2022/06/05 10:26:37;;;;;;;;;;;20.00;1.00;;;;;;5051243;28;19971;-81
2022/06/05 10:29:30;;;;;;;;;;;20.20;1.00;;;;;;5047360;28;19963;-82
2022/06/05 10:32:03;;;;;;;;;;;20.40;1.00;;;;;;5014349;28;19921;-83
2022/06/05 10:34:36;;;;;;;;;;;20.50;1.00;;;;;;5052087;28;19999;-81
2022/06/05 10:37:14;;;;;;;;;;;20.60;1.00;;;;;;5039797;28;19913;-83
2022/06/05 10:39:58;;;;;;;;;;;20.60;1.00;;;;;;5050869;28;19947;-81
2022/06/05 10:42:23;;;;;;;;;;;20.60;1.00;;;;;;5051184;28;20015;-81
2022/06/05 10:45:02;;;;;;;;;;;20.70;1.00;;;;;;5059009;28;19908;-82
2022/06/05 10:47:36;;;;;;;;;;;20.50;1.00;;;;;;5058089;28;20357;-83
2022/06/05 10:50:10;;;;;;;;;;;20.30;1.00;;;;;;5062803;28;19928;-82
2022/06/05 10:52:39;;;;;;;;;;;20.20;1.00;;;;;;5053337;28;19963;-80
2022/06/05 10:55:18;;;;;;;;;;;20.20;1.00;;;;;;5051954;28;19960;-83
2022/06/05 10:57:51;;;;;;;;;;;20.30;1.00;;;;;;5036957;28;19963;-82
2022/06/05 11:00:19;;;;;;;;;;;20.50;1.00;;;;;;5055377;28;20148;-80
2022/06/05 11:03:01;;;;;;;;;;;20.70;1.00;;;;;;5040013;28;19908;-81
2022/06/05 11:05:39;;;;;;;;;;;20.90;1.00;;;;;;5052239;28;19916;-82
2022/06/05 11:08:17;;;;;;;;;;;21.20;1.00;;;;;;5055318;28;19959;-82
2022/06/05 11:14:04;;;;;;;;;;;21.80;99.90;;;;;;5054571;28;19920;-81
2022/06/05 11:16:50;;;;;;;;;;;22.30;63.80;;;;;;5056641;28;19912;-82
2022/06/05 11:19:34;;;;;;;;;;;22.70;1.00;;;;;;5041757;28;20280;-82
2022/06/05 11:22:01;;;;;;;;;;;23.30;1.00;;;;;;5055958;28;19913;-81
2022/06/05 11:24:32;;;;;;;;;;;24.00;1.00;;;;;;5049953;28;20377;-82
2022/06/05 11:26:57;;;;;;;;;;;24.50;1.00;;;;;;5032193;28;19925;-80
2022/06/05 11:29:27;;;;;;;;;;;24.70;1.00;;;;;;5050868;28;19920;-81
2022/06/05 11:32:14;;;;;;;;;;;24.80;1.00;;;;;;5047753;28;20431;-82
2022/06/05 11:34:58;;;;;;;;;;;24.60;99.90;;;;;;5049845;28;19913;-81
2022/06/05 11:37:27;;;;;;;;;;;24.60;99.90;;;;;;5043347;28;19913;-81
2022/06/05 11:40:00;;;;;;;;;;;24.70;99.90;;;;;;5049683;28;20403;-82
2022/06/05 11:42:35;;;;;;;;;;;25.00;17.40;;;;;;5042257;28;20373;-82
2022/06/05 11:45:04;;;;;;;;;;;25.00;1.00;;;;;;5036813;28;20296;-82
2022/06/05 11:47:32;;;;;;;;;;;25.10;1.00;;;;;;5050878;28;19916;-81
2022/06/05 11:50:04;;;;;;;;;;;25.20;1.00;;;;;;5053065;28;20145;-83
2022/06/05 11:52:59;;;;;;;;;;;25.60;99.90;;;;;;5030457;28;19921;-82
2022/06/05 11:55:30;;;;;;;;;;;26.00;99.90;;;;;;5021085;28;19913;-82
2022/06/05 11:58:00;;;;;;;;;;;26.60;99.90;;;;;;5052290;28;20003;-81
2022/06/05 12:00:29;;;;;;;;;;;26.40;99.90;;;;;;5049421;28;19913;-83
2022/06/05 12:02:59;;;;;;;;;;;26.20;99.90;;;;;;5052003;28;19913;-82
2022/06/05 12:05:47;;;;;;;;;;;26.10;99.90;;;;;;5049265;28;20338;-82
2022/06/05 12:08:15;;;;;;;;;;;25.80;99.90;;;;;;5052851;28;19925;-82
2022/06/05 12:10:53;;;;;;;;;;;25.60;99.90;;;;;;5051564;28;19944;-81
2022/06/05 12:13:27;;;;;;;;;;;25.60;99.90;;;;;;5052181;28;19920;-83
2022/06/05 12:16:05;;;;;;;;;;;25.60;50.80;;;;;;5051046;28;20289;-83
2022/06/05 12:18:40;;;;;;;;;;;25.60;73.70;;;;;;5033764;28;20368;-82
2022/06/05 12:21:22;;;;;;;;;;;25.60;99.90;;;;;;5048344;28;19913;-82
2022/06/05 12:23:51;;;;;;;;;;;25.50;96.00;;;;;;5049754;28;19919;-82
2022/06/05 12:26:17;;;;;;;;;;;25.50;36.20;;;;;;5052962;28;20008;-83
2022/06/05 12:28:48;;;;;;;;;;;25.40;39.50;;;;;;5040232;28;19960;-82
2022/06/05 12:31:15;;;;;;;;;;;25.40;68.70;;;;;;5060067;28;19920;-84
2022/06/05 12:33:44;;;;;;;;;;;25.20;65.00;;;;;;5058750;22;20129;-79
2022/06/05 12:36:09;;;;;;;;;;;25.10;49.50;;;;;;5031840;28;19948;-79
2022/06/05 12:38:52;;;;;;;;;;;24.70;86.60;;;;;;5032422;28;19913;-79
2022/06/05 12:41:17;;;;;;;;;;;24.70;99.90;;;;;;5033660;28;19928;-79
2022/06/05 12:44:01;;;;;;;;;;;24.70;99.90;;;;;;5033928;28;19913;-80
2022/06/05 12:46:26;;;;;;;;;;;24.90;99.90;;;;;;5030892;28;19948;-79
2022/06/05 12:49:04;;;;;;;;;;;25.10;99.90;;;;;;5031691;28;19921;-79
2022/06/05 12:51:31;;;;;;;;;;;24.70;99.90;;;;;;5035865;28;19917;-80
2022/06/05 12:54:02;;;;;;;;;;;24.40;99.90;;;;;;5033193;28;20278;-79
2022/06/05 12:56:43;;;;;;;;;;;24.20;99.90;;;;;;5029443;28;19913;-80
2022/06/05 12:59:18;;;;;;;;;;;23.90;1.00;;;;;;5016382;28;19924;-80
2022/06/05 13:01:50;;;;;;;;;;;23.70;15.00;;;;;;5032441;28;19913;-80
2022/06/05 13:04:31;;;;;;;;;;;23.50;99.90;;;;;;5031462;28;19921;-79
2022/06/05 13:07:12;;;;;;;;;;;23.40;1.00;;;;;;5030870;28;19913;-80
2022/06/05 13:09:44;;;;;;;;;;;23.30;1.00;;;;;;5034136;28;20456;-79
2022/06/05 13:12:13;;;;;;;;;;;23.30;1.00;;;;;;5032848;28;19913;-79
2022/06/05 13:14:41;;;;;;;;;;;23.40;28.50;;;;;;5030543;28;19920;-79
2022/06/05 13:17:10;;;;;;;;;;;23.20;99.90;;;;;;5033484;28;19913;-79
2022/06/05 13:19:40;;;;;;;;;;;23.20;1.00;;;;;;5031543;28;19913;-79
2022/06/05 13:22:11;;;;;;;;;;;23.20;99.90;;;;;;5030279;28;19924;-80
2022/06/05 13:24:49;;;;;;;;;;;23.00;1.00;;;;;;5035088;28;19913;-79
2022/06/05 13:27:34;;;;;;;;;;;22.80;92.30;;;;;;5034688;28;19917;-79
2022/06/05 13:30:14;;;;;;;;;;;22.50;99.90;;;;;;5032768;28;20332;-79
2022/06/05 13:32:59;;;;;;;;;;;22.20;55.90;;;;;;5021551;28;19917;-79
2022/06/05 13:35:35;;;;;;;;;;;22.00;99.90;;;;;;5037847;28;19928;-79
2022/06/05 13:38:21;;;;;;;;;;;22.00;1.00;;;;;;5038587;28;19924;-79
2022/06/05 13:41:02;;;;;;;;;;;21.80;99.90;;;;;;5031678;28;19921;-79
2022/06/05 13:43:35;;;;;;;;;;;21.60;1.00;;;;;;5037144;28;19921;-79
2022/06/05 13:46:21;;;;;;;;;;;21.40;1.00;;;;;;5017382;28;19948;-80
2022/06/05 13:48:46;;;;;;;;;;;21.10;99.90;;;;;;5030786;28;19924;-80
2022/06/05 13:51:22;;;;;;;;;;;20.90;99.90;;;;;;5036011;28;19912;-79
2022/06/05 13:53:54;;;;;;;;;;;20.70;1.00;;;;;;5035932;28;19953;-80
2022/06/05 13:56:19;;;;;;;;;;;20.60;1.00;;;;;;5033326;28;19936;-80
2022/06/05 13:58:49;;;;;;;;;;;20.40;1.00;;;;;;5036682;28;20484;-80
2022/06/05 14:01:34;;;;;;;;;;;20.10;1.00;;;;;;5016783;28;19917;-79
2022/06/05 14:04:18;;;;;;;;;;;19.70;1.00;;;;;;5034414;28;20275;-83
2022/06/05 14:36:18;;;;;;;;;;;;;;;;;;;;;
2022/06/05 14:42:24;;;;;;;;;;;20.20;24.30;;;;;;5006388;28;19917;-84
2022/06/05 14:48:10;;;;;;;;;;;20.40;11.00;;;;;;5016025;28;19944;-84
2022/06/05 14:50:42;;;;;;;;;;;20.40;4.60;;;;;;5041600;28;19913;-84
2022/06/05 14:53:21;;;;;;;;;;;20.50;11.90;;;;;;5039415;28;19921;-84
2022/06/05 14:59:01;;;;;;;;;;;20.90;1.00;;;;;;5037009;28;19983;-84
2022/06/05 15:01:38;;;;;;;;;;;21.20;1.00;;;;;;5041185;28;19913;-85
2022/06/05 15:07:44;;;;;;;;;;;;;;;;;;;;;
2022/06/05 15:10:39;;;;;;;;;;;22.40;1.00;;;;;;5034333;28;20007;-84
2022/06/05 15:19:48;;;;;;;;;;;21.20;1.00;;;;;;5006714;28;19921;-83
2022/06/05 15:25:24;;;;;;;;;;;20.60;1.00;;;;;;5027204;28;20397;-84
2022/06/05 15:28:09;;;;;;;;;;;20.50;1.00;;;;;;5031078;28;19962;-83
2022/06/05 15:33:59;;;;;;;;;;;20.40;1.00;;;;;;5025157;28;19979;-84
2022/06/05 15:36:32;;;;;;;;;;;20.30;1.00;;;;;;5029703;28;19913;-84
2022/06/05 15:38:58;;;;;;;;;;;20.10;1.00;;;;;;5014744;28;19925;-84
2022/06/05 15:41:43;;;;;;;;;;;19.80;1.00;;;;;;5031700;28;20313;-84
2022/06/05 15:44:24;;;;;;;;;;;19.70;1.00;;;;;;5029957;28;20352;-83
2022/06/05 15:47:10;;;;;;;;;;;19.50;1.00;;;;;;5030497;28;19967;-84
2022/06/05 15:49:42;;;;;;;;;;;19.40;1.00;;;;;;5031782;28;20413;-84
2022/06/05 17:45:26;;;;;;;;;;;18.50;1.00;;;;;;5087351;28;20405;-84
2022/06/05 17:48:00;;;;;;;;;;;18.40;1.00;;;;;;5067597;28;19917;-84
2022/06/05 17:50:45;;;;;;;;;;;18.30;1.00;;;;;;5065524;28;19920;-84
2022/06/05 17:53:22;;;;;;;;;;;18.30;1.00;;;;;;5059789;28;19928;-88